createdAt,value
2019-06-26T00:00:45.567Z,4.5
2019-06-26T00:01:45.563Z,4.8
2019-06-26T00:02:45.529Z,4.5
2019-06-26T00:03:46.593Z,4.6
2019-06-26T00:04:45.511Z,4.9
2019-06-26T00:05:45.501Z,4.7
2019-06-26T00:06:45.489Z,4.6
2019-06-26T00:07:45.482Z,4.5
2019-06-26T00:08:45.488Z,4.4
2019-06-26T00:09:45.466Z,4.6
2019-06-26T00:10:45.446Z,4.8
2019-06-26T00:11:45.502Z,4.7
2019-06-26T00:12:45.425Z,4.5
2019-06-26T00:13:45.413Z,4.1
2019-06-26T00:14:45.418Z,4.5
2019-06-26T00:15:45.409Z,4.3
2019-06-26T00:16:45.447Z,4.6
2019-06-26T00:17:45.378Z,4.7
2019-06-26T00:18:45.359Z,4.9
2019-06-26T00:19:45.451Z,4.1
2019-06-26T00:20:46.332Z,4.5
2019-06-26T00:21:45.392Z,4.8
2019-06-26T00:22:45.313Z,4.3
2019-06-26T00:23:45.313Z,4.5
2019-06-26T00:24:45.303Z,4.5
2019-06-26T00:25:45.286Z,4.6
2019-06-26T00:26:46.343Z,4.4
2019-06-26T00:27:45.267Z,4.3
2019-06-26T00:28:45.258Z,4.4
2019-06-26T00:29:45.238Z,4.3
2019-06-26T00:30:45.247Z,4.6
2019-06-26T00:31:45.226Z,4.4
2019-06-26T00:32:45.233Z,4.2
2019-06-26T00:33:45.203Z,4.3
2019-06-26T00:34:45.267Z,4.4
2019-06-26T00:35:45.177Z,4.6
2019-06-26T00:36:45.164Z,4.4
2019-06-26T00:37:45.250Z,4.6
2019-06-26T00:38:45.145Z,4.4
2019-06-26T00:39:45.136Z,4.6
2019-06-26T00:40:45.135Z,4.5
2019-06-26T00:41:45.118Z,4.5
2019-06-26T00:42:45.362Z,4.2
2019-06-26T00:43:46.095Z,4.3
2019-06-26T00:44:46.081Z,4.7
2019-06-26T00:45:45.070Z,4.4
2019-06-26T00:46:45.068Z,4.4
2019-06-26T00:47:45.117Z,4.6
2019-06-26T00:48:45.043Z,4.5
2019-06-26T00:49:45.027Z,4.1
2019-06-26T00:50:45.049Z,4.7
2019-06-26T00:51:45.027Z,4.9
2019-06-26T00:52:45.028Z,4.7
2019-06-26T00:53:44.989Z,4.3
2019-06-26T00:54:44.982Z,4.3
2019-06-26T00:55:44.969Z,4.6
2019-06-26T00:56:45.953Z,4.4
2019-06-26T00:57:44.945Z,4.9
2019-06-26T00:58:45.014Z,4.4
2019-06-26T00:59:44.924Z,4.3
2019-06-26T01:00:44.911Z,4.5
2019-06-26T01:01:44.904Z,4.6
2019-06-26T01:02:44.946Z,4.7
2019-06-26T01:03:44.952Z,4.5
2019-06-26T01:04:44.874Z,4.8
2019-06-26T01:05:44.859Z,4.2
2019-06-26T01:06:44.855Z,4.7
2019-06-26T01:07:44.838Z,4.7
2019-06-26T01:08:44.900Z,4.7
2019-06-26T01:09:44.822Z,4.7
2019-06-26T01:10:44.810Z,4.2
2019-06-26T01:11:44.803Z,4.5
2019-06-26T01:12:44.783Z,4.9
2019-06-26T01:13:57.572Z,4.5
2019-06-26T01:14:45.769Z,4.6
2019-06-26T01:15:44.755Z,4.6
2019-06-26T01:16:44.745Z,4.5
2019-06-26T01:17:44.754Z,4.4
2019-06-26T01:18:44.758Z,4.8
2019-06-26T01:19:44.714Z,5.2
2019-06-26T01:20:44.703Z,4.9
2019-06-26T01:21:44.693Z,4.8
2019-06-26T01:22:44.683Z,5
2019-06-26T01:23:44.673Z,5.3
2019-06-26T01:24:44.729Z,4.9
2019-06-26T01:25:44.651Z,4.9
2019-06-26T01:26:44.637Z,5.1
2019-06-26T01:27:44.633Z,5.1
2019-06-26T01:28:44.621Z,4.7
2019-06-26T01:29:44.671Z,5
2019-06-26T01:30:44.596Z,4.5
2019-06-26T01:31:44.582Z,4.8
2019-06-26T01:32:44.584Z,4.8
2019-06-26T01:33:44.575Z,4.6
2019-06-26T01:34:44.626Z,4.9
2019-06-26T01:35:44.550Z,5
2019-06-26T01:36:44.538Z,4.8
2019-06-26T01:37:44.521Z,5.1
2019-06-26T01:38:44.544Z,5
2019-06-26T01:39:44.570Z,4.5
2019-06-26T01:40:44.495Z,4.6
2019-06-26T01:41:45.469Z,4.8
2019-06-26T01:42:44.469Z,4.9
2019-06-26T01:43:44.455Z,4.7
2019-06-26T01:44:44.453Z,4.5
2019-06-26T01:45:44.439Z,4.5
2019-06-26T01:46:44.433Z,4.9
2019-06-26T01:47:44.409Z,4.6
2019-06-26T01:48:44.418Z,4.8
2019-06-26T01:49:44.396Z,4.7
2019-06-26T01:50:44.457Z,4.7
2019-06-26T01:51:44.374Z,4.7
2019-06-26T01:52:44.361Z,4.7
2019-06-26T01:53:44.356Z,4.9
2019-06-26T01:54:45.334Z,5.6
2019-06-26T01:55:44.463Z,5.4
2019-06-26T01:56:44.319Z,6.2
2019-06-26T01:57:44.311Z,6.4
2019-06-26T01:58:44.300Z,6.4
2019-06-26T01:59:44.291Z,6.3
2019-06-26T02:00:44.347Z,6
2019-06-26T02:01:44.289Z,6.4
2019-06-26T02:02:44.259Z,6.1
2019-06-26T02:03:44.250Z,5.7
2019-06-26T02:04:44.251Z,5.9
2019-06-26T02:05:44.289Z,5.5
2019-06-26T02:06:44.218Z,5.8
2019-06-26T02:07:44.203Z,6
2019-06-26T02:08:44.188Z,5.3
2019-06-26T02:09:44.180Z,5.5
2019-06-26T02:10:44.183Z,5.3
2019-06-26T02:11:44.168Z,5.5
2019-06-26T02:12:44.160Z,5.4
2019-06-26T02:13:44.141Z,5.2
2019-06-26T02:14:44.129Z,5
2019-06-26T02:15:44.118Z,5.2
2019-06-26T02:16:44.165Z,5.2
2019-06-26T02:17:44.116Z,5.5
2019-06-26T02:18:44.095Z,5.5
2019-06-26T02:19:44.085Z,4.9
2019-06-26T02:20:44.064Z,5.4
2019-06-26T02:21:44.117Z,5.3
2019-06-26T02:22:44.039Z,5.3
2019-06-26T02:23:44.036Z,5.3
2019-06-26T02:24:44.017Z,5.3
2019-06-26T02:25:44.008Z,5.2
2019-06-26T02:26:44.067Z,5.2
2019-06-26T02:27:44.983Z,5.4
2019-06-26T02:28:43.978Z,5.1
2019-06-26T02:29:43.972Z,4.5
2019-06-26T02:30:43.957Z,4.9
2019-06-26T02:31:44.014Z,4.9
2019-06-26T02:32:43.935Z,5
2019-06-26T02:33:43.924Z,4.9
2019-06-26T02:34:43.913Z,5.2
2019-06-26T02:35:43.930Z,5
2019-06-26T02:36:43.893Z,5.4
2019-06-26T02:37:43.887Z,5.2
2019-06-26T02:38:43.870Z,5.5
2019-06-26T02:39:43.866Z,5.6
2019-06-26T02:40:43.867Z,5.1
2019-06-26T02:41:43.855Z,5.3
2019-06-26T02:42:43.898Z,5.3
2019-06-26T02:43:43.829Z,5.5
2019-06-26T02:44:53.568Z,5.4
2019-06-26T02:45:44.794Z,5.7
2019-06-26T02:46:43.784Z,5.6
2019-06-26T02:47:43.847Z,5.5
2019-06-26T02:48:43.764Z,5.6
2019-06-26T02:49:43.757Z,5.5
2019-06-26T02:50:43.747Z,5.5
2019-06-26T02:51:43.738Z,5.5
2019-06-26T02:52:43.790Z,5.6
2019-06-26T02:53:43.719Z,5.8
2019-06-26T02:54:43.710Z,5.4
2019-06-26T02:55:43.691Z,5.6
2019-06-26T02:56:43.684Z,5.2
2019-06-26T02:57:43.739Z,5.2
2019-06-26T02:58:43.657Z,5.7
2019-06-26T02:59:43.666Z,5.7
2019-06-26T03:00:43.637Z,5.7
2019-06-26T03:01:43.628Z,5.8
2019-06-26T03:02:43.616Z,5.7
2019-06-26T03:03:44.610Z,5.3
2019-06-26T03:04:43.597Z,5.7
2019-06-26T03:05:43.592Z,5.7
2019-06-26T03:06:43.577Z,5.5
2019-06-26T03:07:43.566Z,5.7
2019-06-26T03:08:43.581Z,5.4
2019-06-26T03:09:43.558Z,5.8
2019-06-26T03:10:43.531Z,5.7
2019-06-26T03:11:43.531Z,5.5
2019-06-26T03:12:44.525Z,5.8
2019-06-26T03:13:43.573Z,5.3
2019-06-26T03:14:43.494Z,5.2
2019-06-26T03:15:43.490Z,5.3
2019-06-26T03:16:43.469Z,5.1
2019-06-26T03:17:55.139Z,5
2019-06-26T03:18:44.511Z,5.3
2019-06-26T03:19:43.441Z,4.9
2019-06-26T03:20:43.424Z,5.1
2019-06-26T03:21:43.422Z,5.2
2019-06-26T03:22:43.407Z,5.4
2019-06-26T03:23:43.485Z,5.2
2019-06-26T03:24:43.387Z,5.2
2019-06-26T03:25:43.370Z,5.2
2019-06-26T03:26:43.375Z,5.2
2019-06-26T03:27:43.351Z,5.6
2019-06-26T03:28:43.408Z,5.4
2019-06-26T03:29:43.331Z,5.2
2019-06-26T03:30:43.320Z,5.1
2019-06-26T03:31:43.327Z,4.8
2019-06-26T03:32:43.297Z,5.1
2019-06-26T03:33:43.294Z,5
2019-06-26T03:34:43.277Z,5.2
2019-06-26T03:35:44.261Z,5.1
2019-06-26T03:36:43.267Z,5.2
2019-06-26T03:37:44.236Z,5
2019-06-26T03:38:43.235Z,5.1
2019-06-26T03:39:43.292Z,5.3
2019-06-26T03:40:43.215Z,4.8
2019-06-26T03:41:43.201Z,5.2
2019-06-26T03:42:43.197Z,4.9
2019-06-26T03:43:43.197Z,5.1
2019-06-26T03:44:43.233Z,5
2019-06-26T03:45:43.189Z,5
2019-06-26T03:46:43.149Z,5
2019-06-26T03:47:43.145Z,5.3
2019-06-26T03:48:43.133Z,5.4
2019-06-26T03:49:43.187Z,5.2
2019-06-26T03:50:43.110Z,5.2
2019-06-26T03:51:43.104Z,5.1
2019-06-26T03:52:43.095Z,5.3
2019-06-26T03:53:43.076Z,5.4
2019-06-26T03:54:43.136Z,5.1
2019-06-26T03:55:43.059Z,4.7
2019-06-26T03:56:43.041Z,5.2
2019-06-26T03:57:43.050Z,5
2019-06-26T03:58:43.027Z,5
2019-06-26T03:59:43.025Z,5.3
2019-06-26T04:00:43.072Z,5
2019-06-26T04:01:42.998Z,5.1
2019-06-26T04:02:43.975Z,5.3
2019-06-26T04:03:42.986Z,5.3
2019-06-26T04:04:42.980Z,5.6
2019-06-26T04:05:43.040Z,5.1
2019-06-26T04:06:42.958Z,5.1
2019-06-26T04:07:42.927Z,5.2
2019-06-26T04:08:42.924Z,5.2
2019-06-26T04:09:42.912Z,4.8
2019-06-26T04:10:44.964Z,5.5
2019-06-26T04:11:42.899Z,5.3
2019-06-26T04:12:42.887Z,5.5
2019-06-26T04:13:42.871Z,5.2
2019-06-26T04:14:42.860Z,5.2
2019-06-26T04:15:44.910Z,5.2
2019-06-26T04:16:42.839Z,5.1
2019-06-26T04:17:42.827Z,5.1
2019-06-26T04:18:42.812Z,4.9
2019-06-26T04:19:42.807Z,5.2
2019-06-26T04:20:42.791Z,5.2
2019-06-26T04:21:42.852Z,5.1
2019-06-26T04:22:42.777Z,5.8
2019-06-26T04:23:43.770Z,5.8
2019-06-26T04:24:42.781Z,6.2
